nws-alerts: Checking more than four warning/county codes can delay the loading of your pages. You should use a cron job to get the data.
EllijayWeather Station Historical Data
Daily Summary for February 20, 2019 Units:  English    Metric   Both
Daily Weekly Monthly Yearly Custom
  High: Low: Average:
Temperature: 49.8 °F 37.2 °F 44.3 °F
Dew Point: 49.5 °F 34.9 °F 42.4 °F
Humidity: 99% 88% 93%
Wind Speed: 12.1mph 0.0mph 2mph
Wind Gust: 19.0mph - -
Wind- - SE
Pressure: 30.29 in 30.01 in -
Precipitation: 1.56 in    
Historical Graphs
 
 
Tabular Data for February 20, 2019
Time Temperature Dew Point Pressure Wind Wind Speed Wind Gust Humidity Rainfall Rate (Hourly) solar
00:04 37.2 °F 34.9 °F 30.27 in SE 8.1 mph 12.0 mph 91% 0.00 in meteobridge W/m2
00:09 37.2 °F 34.9 °F 30.29 in ESE 0.9 mph 12.0 mph 91% 0.00 in meteobridge W/m2
00:14 37.4 °F 35.2 °F 30.29 in ESE 4.0 mph 13.0 mph 92% 0.00 in meteobridge W/m2
00:19 37.4 °F 35.1 °F 30.29 in SSE 4.9 mph 8.0 mph 91% 0.00 in meteobridge W/m2
00:24 37.4 °F 35.2 °F 30.28 in ESE 4.9 mph 11.0 mph 92% 0.00 in meteobridge W/m2
00:29 37.6 °F 35.4 °F 30.29 in East 4.0 mph 8.0 mph 92% 0.00 in meteobridge W/m2
00:34 37.8 °F 35.1 °F 30.29 in SE 4.9 mph 13.0 mph 90% 0.00 in meteobridge W/m2
00:39 37.8 °F 35.1 °F 30.29 in SE 6.0 mph 7.0 mph 90% 0.00 in meteobridge W/m2
00:44 37.6 °F 35.2 °F 30.28 in SE 4.0 mph 8.0 mph 91% 0.00 in meteobridge W/m2
00:49 37.6 °F 35.2 °F 30.29 in SE 6.0 mph 14.0 mph 91% 0.00 in meteobridge W/m2
00:54 37.6 °F 34.9 °F 30.27 in SE 4.0 mph 14.0 mph 90% 0.00 in meteobridge W/m2
00:59 37.6 °F 34.9 °F 30.26 in ESE 4.0 mph 13.0 mph 90% 0.00 in meteobridge W/m2
01:04 37.8 °F 35.1 °F 30.26 in WSW 4.9 mph 13.0 mph 90% 0.00 in meteobridge W/m2
01:09 37.8 °F 35.1 °F 30.26 in ESE 0.9 mph 6.0 mph 90% 0.00 in meteobridge W/m2
01:14 37.8 °F 35.4 °F 30.27 in SE 4.9 mph 11.0 mph 91% 0.00 in meteobridge W/m2
01:19 37.8 °F 35.1 °F 30.26 in SE 4.9 mph 8.0 mph 90% 0.00 in meteobridge W/m2
01:22 37.8 °F 35.1 °F 30.26 in ESE 4.0 mph 11.0 mph 90% 0.00 in meteobridge W/m2
01:29 38.1 °F 35.4 °F 30.26 in East 6.0 mph 11.0 mph 90% 0.00 in meteobridge W/m2
01:34 38.3 °F 35.6 °F 30.26 in SE 6.9 mph 9.0 mph 90% 0.00 in meteobridge W/m2
01:39 38.5 °F 35.8 °F 30.27 in SE 4.0 mph 8.0 mph 90% 0.00 in meteobridge W/m2
01:44 38.7 °F 36.0 °F 30.27 in SE 6.9 mph 12.0 mph 90% 0.00 in meteobridge W/m2
01:49 38.7 °F 36.0 °F 30.26 in ESE 2.0 mph 7.0 mph 90% 0.00 in meteobridge W/m2
01:54 38.8 °F 36.1 °F 30.27 in SE 6.9 mph 11.0 mph 90% 0.00 in meteobridge W/m2
01:59 38.8 °F 36.1 °F 30.27 in SE 4.9 mph 9.0 mph 90% 0.00 in meteobridge W/m2
02:04 38.8 °F 36.1 °F 30.26 in ESE 6.0 mph 12.0 mph 90% 0.00 in meteobridge W/m2
02:09 38.8 °F 36.5 °F 30.27 in ESE 4.0 mph 9.0 mph 91% 0.00 in meteobridge W/m2
02:14 38.7 °F 36.0 °F 30.27 in SE 6.0 mph 9.0 mph 90% 0.00 in meteobridge W/m2
02:19 38.7 °F 36.0 °F 30.27 in SE 2.0 mph 9.0 mph 90% 0.00 in meteobridge W/m2
02:24 38.7 °F 36.0 °F 30.28 in ESE 12.1 mph 19.0 mph 90% 0.00 in meteobridge W/m2
02:29 38.7 °F 35.8 °F 30.27 in East 6.9 mph 13.0 mph 89% 0.00 in meteobridge W/m2
02:34 38.7 °F 35.8 °F 30.27 in East 6.9 mph 14.0 mph 89% 0.00 in meteobridge W/m2
02:39 38.5 °F 35.6 °F 30.27 in ESE 4.9 mph 12.0 mph 89% 0.00 in meteobridge W/m2
02:44 38.5 °F 35.6 °F 30.27 in SE 8.1 mph 9.0 mph 89% 0.00 in meteobridge W/m2
02:49 38.5 °F 35.6 °F 30.27 in Calm   5.0 mph 89% 0.00 in meteobridge W/m2
02:54 38.5 °F 35.8 °F 30.27 in SE 2.0 mph 8.0 mph 90% 0.00 in meteobridge W/m2
02:59 38.7 °F 36.0 °F 30.27 in SE 2.0 mph 6.0 mph 90% 0.00 in meteobridge W/m2
03:04 38.7 °F 36.0 °F 30.27 in SE 4.9 mph 5.0 mph 90% 0.00 in meteobridge W/m2
03:09 38.7 °F 36.3 °F 30.27 in Calm   8.0 mph 91% 0.00 in meteobridge W/m2
03:14 38.7 °F 36.5 °F 30.27 in SE 2.0 mph 5.0 mph 92% 0.00 in meteobridge W/m2
03:19 38.5 °F 36.3 °F 30.27 in SE 2.0 mph 8.0 mph 92% 0.00 in meteobridge W/m2
03:24 38.5 °F 36.3 °F 30.26 in Calm   2.0 mph 92% 0.00 in meteobridge W/m2
03:29 38.7 °F 36.3 °F 30.26 in Calm   9.0 mph 91% 0.00 in meteobridge W/m2
03:34 38.7 °F 36.3 °F 30.26 in ESE 2.0 mph 5.0 mph 91% 0.00 in meteobridge W/m2
03:39 38.7 °F 36.0 °F 30.27 in SE 2.0 mph 8.0 mph 90% 0.00 in meteobridge W/m2
03:44 38.7 °F 36.3 °F 30.26 in ESE 4.9 mph 6.0 mph 91% 0.01 in meteobridge W/m2
03:49 38.5 °F 35.8 °F 30.25 in ESE 2.0 mph 9.0 mph 90% 0.01 in meteobridge W/m2
03:54 38.7 °F 36.3 °F 30.24 in ESE 4.0 mph 11.0 mph 91% 0.01 in meteobridge W/m2
03:59 38.7 °F 36.0 °F 30.24 in South 2.0 mph 9.0 mph 90% 0.01 in meteobridge W/m2
04:04 38.7 °F 36.0 °F 30.24 in ESE 4.9 mph 12.0 mph 90% 0.01 in meteobridge W/m2
04:09 38.7 °F 36.0 °F 30.24 in East 4.0 mph 8.0 mph 90% 0.01 in meteobridge W/m2
04:14 38.8 °F 36.1 °F 30.23 in ESE 6.0 mph 13.0 mph 90% 0.01 in meteobridge W/m2
04:19 38.7 °F 36.0 °F 30.23 in SE 6.0 mph 6.0 mph 90% 0.01 in meteobridge W/m2
04:24 38.8 °F 36.1 °F 30.23 in East 11.0 mph 12.0 mph 90% 0.01 in meteobridge W/m2
04:29 38.8 °F 36.0 °F 30.22 in ESE 4.9 mph 11.0 mph 89% 0.01 in meteobridge W/m2
04:34 38.7 °F 36.0 °F 30.22 in SE 0.9 mph 6.0 mph 90% 0.01 in meteobridge W/m2
04:39 38.7 °F 36.0 °F 30.22 in SE 4.0 mph 9.0 mph 90% 0.01 in meteobridge W/m2
04:44 38.7 °F 36.0 °F 30.22 in ESE 6.0 mph 10.0 mph 90% 0.00 in meteobridge W/m2
04:49 38.7 °F 36.0 °F 30.22 in SE 4.0 mph 8.0 mph 90% 0.00 in meteobridge W/m2
04:54 38.7 °F 35.8 °F 30.22 in SE 6.9 mph 12.0 mph 89% 0.00 in meteobridge W/m2
04:59 38.7 °F 35.8 °F 30.21 in ESE 12.1 mph 12.0 mph 89% 0.00 in meteobridge W/m2
05:04 38.7 °F 36.0 °F 30.22 in ESE 6.9 mph 11.0 mph 90% 0.00 in meteobridge W/m2
05:09 38.7 °F 36.0 °F 30.22 in SE 2.0 mph 9.0 mph 90% 0.00 in meteobridge W/m2
05:14 38.8 °F 36.1 °F 30.22 in SE 4.0 mph 6.0 mph 90% 0.00 in meteobridge W/m2
05:19 38.8 °F 36.0 °F 30.23 in SSE 2.0 mph 11.0 mph 89% 0.00 in meteobridge W/m2
05:24 39.0 °F 36.1 °F 30.23 in ESE 6.0 mph 8.0 mph 89% 0.00 in meteobridge W/m2
05:29 38.8 °F 36.0 °F 30.22 in ESE 4.9 mph 6.0 mph 89% 0.00 in meteobridge W/m2
05:34 38.8 °F 36.0 °F 30.22 in SE 4.0 mph 11.0 mph 89% 0.00 in meteobridge W/m2
05:39 38.8 °F 36.0 °F 30.23 in ESE 4.0 mph 9.0 mph 89% 0.00 in meteobridge W/m2
05:44 38.8 °F 36.0 °F 30.22 in ESE 4.0 mph 8.0 mph 89% 0.00 in meteobridge W/m2
05:49 38.8 °F 36.0 °F 30.21 in SE 4.0 mph 7.0 mph 89% 0.00 in meteobridge W/m2
05:54 38.8 °F 36.1 °F 30.21 in SSE 0.9 mph 6.0 mph 90% 0.00 in meteobridge W/m2
05:59 39.0 °F 36.3 °F 30.21 in SE 6.0 mph 7.0 mph 90% 0.00 in meteobridge W/m2
06:04 39.0 °F 36.3 °F 30.22 in SE 6.0 mph 9.0 mph 90% 0.00 in meteobridge W/m2
06:09 39.4 °F 36.7 °F 30.22 in Calm   5.0 mph 90% 0.00 in meteobridge W/m2
06:14 39.4 °F 36.7 °F 30.22 in SE 4.9 mph 6.0 mph 90% 0.00 in meteobridge W/m2
06:19 39.4 °F 36.7 °F 30.22 in SSE 4.0 mph 9.0 mph 90% 0.00 in meteobridge W/m2
06:24 39.7 °F 37.0 °F 30.22 in East 2.0 mph 12.0 mph 90% 0.00 in meteobridge W/m2
06:29 39.7 °F 37.0 °F 30.22 in SE 2.0 mph 7.0 mph 90% 0.00 in meteobridge W/m2
06:34 39.9 °F 37.6 °F 30.22 in SE 0.9 mph 9.0 mph 91% 0.00 in meteobridge W/m2
06:39 39.9 °F 37.6 °F 30.22 in SE 2.0 mph 6.0 mph 91% 0.00 in meteobridge W/m2
06:44 40.1 °F 37.8 °F 30.22 in SE 4.0 mph 7.0 mph 91% 0.00 in meteobridge W/m2
06:49 40.3 °F 37.9 °F 30.22 in Calm   7.0 mph 91% 0.00 in meteobridge W/m2
06:54 40.3 °F 37.9 °F 30.22 in Calm   9.0 mph 91% 0.00 in meteobridge W/m2
06:59 40.5 °F 38.1 °F 30.21 in South 8.1 mph 8.0 mph 91% 0.00 in meteobridge W/m2
07:04 40.5 °F 38.1 °F 30.21 in SE 4.0 mph 9.0 mph 91% 0.00 in meteobridge W/m2
07:09 40.6 °F 38.3 °F 30.21 in ESE 4.0 mph 10.0 mph 91% 0.00 in meteobridge W/m2
07:14 40.6 °F 37.9 °F 30.21 in SE 2.0 mph 9.0 mph 90% 0.00 in meteobridge W/m2
07:19 40.8 °F 38.5 °F 30.22 in East 2.0 mph 6.0 mph 91% 0.00 in meteobridge W/m2
07:24 41.0 °F 38.3 °F 30.22 in SE 0.9 mph 2.0 mph 90% 0.00 in meteobridge W/m2
07:29 41.2 °F 38.8 °F 30.23 in ESE 4.0 mph 7.0 mph 91% 0.00 in meteobridge W/m2
07:34 41.4 °F 39.0 °F 30.23 in Calm   5.0 mph 91% 0.00 in meteobridge W/m2
07:39 41.5 °F 39.2 °F 30.22 in SE 2.0 mph 4.0 mph 91% 0.00 in meteobridge W/m2
07:44 41.5 °F 39.2 °F 30.22 in SE 6.0 mph 6.0 mph 91% 0.00 in meteobridge W/m2
07:49 41.7 °F 39.0 °F 30.21 in ESE 4.0 mph 11.0 mph 90% 0.00 in meteobridge W/m2
07:54 41.9 °F 39.2 °F 30.21 in ENE 2.9 mph 7.0 mph 90% 0.00 in meteobridge W/m2
07:59 42.1 °F 39.4 °F 30.20 in SE 0.9 mph 7.0 mph 90% 0.00 in meteobridge W/m2
08:04 42.1 °F 39.6 °F 30.20 in ESE 2.0 mph 7.0 mph 91% 0.00 in meteobridge W/m2
08:09 42.3 °F 39.6 °F 30.21 in East 0.9 mph 6.0 mph 90% 0.00 in meteobridge W/m2
08:14 42.4 °F 39.7 °F 30.21 in Calm   6.0 mph 90% 0.00 in meteobridge W/m2
08:19 42.4 °F 39.7 °F 30.21 in ESE 2.0 mph 6.0 mph 90% 0.00 in meteobridge W/m2
08:24 42.4 °F 39.7 °F 30.21 in ESE 2.0 mph 5.0 mph 90% 0.00 in meteobridge W/m2
08:29 42.4 °F 39.7 °F 30.21 in Calm   6.0 mph 90% 0.00 in meteobridge W/m2
08:34 42.4 °F 39.7 °F 30.21 in ESE 4.0 mph 7.0 mph 90% 0.00 in meteobridge W/m2
08:39 42.4 °F 39.7 °F 30.21 in SE 4.9 mph 10.0 mph 90% 0.00 in meteobridge W/m2
08:44 42.4 °F 39.7 °F 30.21 in SE 0.9 mph 8.0 mph 90% 0.00 in meteobridge W/m2
08:49 42.6 °F 39.9 °F 30.21 in SE 4.9 mph 8.0 mph 90% 0.00 in meteobridge W/m2
08:54 42.6 °F 39.9 °F 30.21 in ESE 0.9 mph 8.0 mph 90% 0.00 in meteobridge W/m2
08:59 42.6 °F 39.9 °F 30.20 in SE 4.9 mph 7.0 mph 90% 0.00 in meteobridge W/m2
09:04 42.6 °F 39.9 °F 30.21 in SSE 4.9 mph 6.0 mph 90% 0.00 in meteobridge W/m2
09:09 42.8 °F 40.1 °F 30.21 in SE 4.0 mph 6.0 mph 90% 0.00 in meteobridge W/m2
09:14 43.0 °F 40.3 °F 30.21 in ESE 4.0 mph 7.0 mph 90% 0.00 in meteobridge W/m2
09:19 43.0 °F 40.3 °F 30.20 in Calm   5.0 mph 90% 0.00 in meteobridge W/m2
09:24 43.0 °F 40.3 °F 30.20 in SSE 2.0 mph 7.0 mph 90% 0.00 in meteobridge W/m2
09:29 43.0 °F 40.3 °F 30.20 in NNE 0.9 mph 5.0 mph 90% 0.00 in meteobridge W/m2
09:34 43.2 °F 40.5 °F 30.20 in Calm   8.0 mph 90% 0.00 in meteobridge W/m2
09:39 43.0 °F 40.3 °F 30.20 in ESE 2.0 mph 6.0 mph 90% 0.00 in meteobridge W/m2
09:44 43.2 °F 40.5 °F 30.20 in ESE 2.0 mph 6.0 mph 90% 0.00 in meteobridge W/m2
09:49 43.0 °F 40.3 °F 30.19 in SE 4.9 mph 8.0 mph 90% 0.00 in meteobridge W/m2
09:54 43.2 °F 40.5 °F 30.19 in ESE 4.9 mph 8.0 mph 90% 0.00 in meteobridge W/m2
09:59 43.2 °F 40.5 °F 30.19 in SE 2.0 mph 7.0 mph 90% 0.00 in meteobridge W/m2
10:04 43.2 °F 40.5 °F 30.19 in SE 2.0 mph 6.0 mph 90% 0.00 in meteobridge W/m2
10:09 43.2 °F 40.5 °F 30.19 in ESE 0.9 mph 11.0 mph 90% 0.00 in meteobridge W/m2
10:14 43.3 °F 40.6 °F 30.19 in Calm   8.0 mph 90% 0.00 in meteobridge W/m2
10:19 43.5 °F 41.0 °F 30.19 in SE 0.9 mph 6.0 mph 91% 0.00 in meteobridge W/m2
10:24 43.5 °F 41.0 °F 30.19 in Calm   5.0 mph 91% 0.00 in meteobridge W/m2
10:29 43.9 °F 41.4 °F 30.19 in SE 6.0 mph 6.0 mph 91% 0.00 in meteobridge W/m2
10:34 43.9 °F 41.2 °F 30.19 in Calm   5.0 mph 90% 0.00 in meteobridge W/m2
10:39 43.9 °F 41.2 °F 30.19 in SE 2.0 mph 5.0 mph 90% 0.00 in meteobridge W/m2
10:43 43.9 °F 41.2 °F 30.18 in SSE 2.0 mph 5.0 mph 90% 0.00 in meteobridge W/m2
10:49 43.9 °F 41.2 °F 30.19 in Calm   8.0 mph 90% 0.00 in meteobridge W/m2
10:54 43.9 °F 41.2 °F 30.19 in SE 2.0 mph 9.0 mph 90% 0.00 in meteobridge W/m2
10:59 43.9 °F 41.4 °F 30.19 in SE 4.0 mph 7.0 mph 91% 0.00 in meteobridge W/m2
11:04 44.1 °F 41.5 °F 30.19 in ESE 2.0 mph 4.0 mph 91% 0.00 in meteobridge W/m2
11:09 44.1 °F 41.4 °F 30.19 in Calm   7.0 mph 90% 0.00 in meteobridge W/m2
11:14 44.2 °F 41.5 °F 30.19 in ESE 2.0 mph 7.0 mph 90% 0.00 in meteobridge W/m2
11:19 44.4 °F 41.7 °F 30.19 in SSE 6.0 mph 6.0 mph 90% 0.00 in meteobridge W/m2
11:24 44.8 °F 42.1 °F 30.19 in SE 6.0 mph 6.0 mph 90% 0.00 in meteobridge W/m2
11:29 45.0 °F 42.3 °F 30.19 in East 0.9 mph 7.0 mph 90% 0.00 in meteobridge W/m2
11:34 45.1 °F 42.4 °F 30.18 in ESE 4.9 mph 6.0 mph 90% 0.00 in meteobridge W/m2
11:39 45.7 °F 42.6 °F 30.18 in SE 0.9 mph 5.0 mph 89% 0.00 in meteobridge W/m2
11:44 46.0 °F 43.0 °F 30.18 in ESE 4.9 mph 6.0 mph 89% 0.00 in meteobridge W/m2
11:49 46.2 °F 42.8 °F 30.18 in Calm   5.0 mph 88% 0.00 in meteobridge W/m2
11:54 46.4 °F 43.0 °F 30.18 in SE 2.0 mph 5.0 mph 88% 0.00 in meteobridge W/m2
11:59 46.4 °F 43.0 °F 30.18 in East 4.0 mph 4.0 mph 88% 0.00 in meteobridge W/m2
12:04 46.4 °F 43.0 °F 30.18 in Calm   8.0 mph 88% 0.00 in meteobridge W/m2
12:09 46.2 °F 42.8 °F 30.17 in Calm   4.0 mph 88% 0.00 in meteobridge W/m2
12:14 46.2 °F 42.8 °F 30.17 in ESE 4.9 mph 7.0 mph 88% 0.00 in meteobridge W/m2
12:19 46.2 °F 43.2 °F 30.16 in Calm   5.0 mph 89% 0.00 in meteobridge W/m2
12:24 46.4 °F 43.7 °F 30.15 in ESE 0.9 mph 5.0 mph 90% 0.00 in meteobridge W/m2
12:29 46.6 °F 43.9 °F 30.15 in SE 4.0 mph 7.0 mph 90% 0.00 in meteobridge W/m2
12:34 46.8 °F 43.7 °F 30.14 in Calm   4.0 mph 89% 0.00 in meteobridge W/m2
12:39 46.9 °F 43.9 °F 30.15 in SE 4.0 mph 5.0 mph 89% 0.00 in meteobridge W/m2
12:44 47.1 °F 44.1 °F 30.15 in Calm   5.0 mph 89% 0.00 in meteobridge W/m2
12:49 46.9 °F 43.9 °F 30.15 in SE 4.0 mph 5.0 mph 89% 0.00 in meteobridge W/m2
12:54 46.9 °F 43.9 °F 30.15 in Calm   2.0 mph 89% 0.00 in meteobridge W/m2
12:59 46.9 °F 43.9 °F 30.15 in SE 2.0 mph 4.0 mph 89% 0.00 in meteobridge W/m2
13:04 46.8 °F 43.7 °F 30.15 in Calm   5.0 mph 89% 0.00 in meteobridge W/m2
13:09 46.6 °F 43.5 °F 30.14 in Calm   7.0 mph 89% 0.00 in meteobridge W/m2
13:14 46.6 °F 43.9 °F 30.14 in SE 2.0 mph 7.0 mph 90% 0.00 in meteobridge W/m2
13:19 46.6 °F 43.5 °F 30.13 in ESE 0.9 mph 4.0 mph 89% 0.00 in meteobridge W/m2
13:24 46.6 °F 43.9 °F 30.14 in East 4.9 mph 5.0 mph 90% 0.00 in meteobridge W/m2
13:29 46.6 °F 43.9 °F 30.13 in SE 4.0 mph 5.0 mph 90% 0.00 in meteobridge W/m2
13:34 46.6 °F 43.9 °F 30.13 in SE 2.0 mph 4.0 mph 90% 0.00 in meteobridge W/m2
13:39 46.6 °F 43.9 °F 30.12 in Calm   4.0 mph 90% 0.00 in meteobridge W/m2
13:44 46.6 °F 43.9 °F 30.12 in Calm   4.0 mph 90% 0.00 in meteobridge W/m2
13:49 46.6 °F 44.1 °F 30.12 in Calm   4.0 mph 91% 0.00 in meteobridge W/m2
13:54 46.6 °F 44.1 °F 30.12 in Calm   5.0 mph 91% 0.00 in meteobridge W/m2
13:59 46.8 °F 44.2 °F 30.12 in Calm   2.0 mph 91% 0.00 in meteobridge W/m2
14:04 46.9 °F 44.8 °F 30.12 in Calm   1.0 mph 92% 0.00 in meteobridge W/m2
14:09 46.9 °F 44.4 °F 30.12 in SE 2.0 mph 2.0 mph 91% 0.00 in meteobridge W/m2
14:14 47.1 °F 45.0 °F 30.11 in SE 4.0 mph 4.0 mph 92% 0.00 in meteobridge W/m2
14:19 47.5 °F 45.3 °F 30.11 in Calm   7.0 mph 92% 0.00 in meteobridge W/m2
14:24 47.7 °F 45.1 °F 30.11 in Calm   2.0 mph 91% 0.00 in meteobridge W/m2
14:29 47.7 °F 45.1 °F 30.10 in Calm   4.0 mph 91% 0.00 in meteobridge W/m2
14:34 47.7 °F 45.1 °F 30.10 in Calm     91% 0.00 in meteobridge W/m2
14:39 47.5 °F 45.0 °F 30.10 in Calm     91% 0.00 in meteobridge W/m2
14:44 47.5 °F 45.0 °F 30.09 in ESE 2.0 mph 4.0 mph 91% 0.00 in meteobridge W/m2
14:49 47.3 °F 44.8 °F 30.09 in Calm   2.0 mph 91% 0.00 in meteobridge W/m2
14:54 47.5 °F 45.0 °F 30.09 in SE 2.0 mph 4.0 mph 91% 0.00 in meteobridge W/m2
14:59 47.5 °F 45.3 °F 30.10 in Calm   5.0 mph 92% 0.00 in meteobridge W/m2
15:04 47.7 °F 45.7 °F 30.10 in SE 4.0 mph 4.0 mph 93% 0.00 in meteobridge W/m2
15:09 47.7 °F 46.0 °F 30.09 in ESE 0.9 mph 1.0 mph 94% 0.00 in meteobridge W/m2
15:14 47.7 °F 46.2 °F 30.09 in Calm     95% 0.01 in meteobridge W/m2
15:19 47.8 °F 46.4 °F 30.09 in Calm   4.0 mph 95% 0.01 in meteobridge W/m2
15:24 48.0 °F 46.6 °F 30.09 in ESE 4.0 mph 5.0 mph 95% 0.01 in meteobridge W/m2
15:29 48.4 °F 46.9 °F 30.09 in Calm   4.0 mph 95% 0.01 in meteobridge W/m2
15:34 48.4 °F 47.3 °F 30.09 in SE 6.0 mph 6.0 mph 96% 0.03 in meteobridge W/m2
15:39 48.4 °F 47.3 °F 30.08 in SE 0.9 mph 4.0 mph 96% 0.03 in meteobridge W/m2
15:44 48.4 °F 47.3 °F 30.09 in Calm   4.0 mph 96% 0.03 in meteobridge W/m2
15:49 48.4 °F 47.3 °F 30.13 in Calm   1.0 mph 96% 0.03 in meteobridge W/m2
15:54 48.0 °F 46.9 °F 30.18 in NW 0.9 mph 4.0 mph 96% 0.04 in meteobridge W/m2
15:59 47.8 °F 46.8 °F 30.13 in Calm   1.0 mph 96% 0.15 in meteobridge W/m2
16:04 47.7 °F 46.6 °F 30.13 in Calm     96% 0.17 in meteobridge W/m2
16:09 47.7 °F 46.9 °F 30.13 in Calm     97% 0.19 in meteobridge W/m2
16:14 47.5 °F 46.8 °F 30.13 in Calm     97% 0.18 in meteobridge W/m2
16:19 47.1 °F 46.4 °F 30.11 in Calm   1.0 mph 97% 0.20 in meteobridge W/m2
16:24 47.1 °F 46.4 °F 30.10 in Calm     97% 0.21 in meteobridge W/m2
16:29 46.9 °F 46.2 °F 30.10 in Calm     97% 0.22 in meteobridge W/m2
16:34 46.9 °F 46.2 °F 30.08 in Calm   2.0 mph 97% 0.20 in meteobridge W/m2
16:39 46.9 °F 46.2 °F 30.10 in East 2.0 mph 3.0 mph 97% 0.21 in meteobridge W/m2
16:44 47.1 °F 46.6 °F 30.09 in Calm     98% 0.27 in meteobridge W/m2
16:49 47.5 °F 46.9 °F 30.09 in Calm   1.0 mph 98% 0.38 in meteobridge W/m2
16:54 47.7 °F 47.1 °F 30.09 in Calm     98% 0.39 in meteobridge W/m2
16:59 47.7 °F 47.1 °F 30.10 in Calm   2.0 mph 98% 0.28 in meteobridge W/m2
17:04 47.7 °F 47.1 °F 30.13 in Calm   5.0 mph 98% 0.26 in meteobridge W/m2
17:09 47.7 °F 47.1 °F 30.09 in Calm   2.0 mph 98% 0.31 in meteobridge W/m2
17:14 47.7 °F 47.1 °F 30.08 in Calm   4.0 mph 98% 0.35 in meteobridge W/m2
17:19 47.5 °F 46.9 °F 30.09 in Calm   5.0 mph 98% 0.33 in meteobridge W/m2
17:24 47.5 °F 46.9 °F 30.08 in Calm   1.0 mph 98% 0.32 in meteobridge W/m2
17:29 47.5 °F 46.9 °F 30.09 in Calm   5.0 mph 98% 0.32 in meteobridge W/m2
17:34 47.7 °F 47.1 °F 30.08 in Calm   2.0 mph 98% 0.32 in meteobridge W/m2
17:39 47.7 °F 47.1 °F 30.08 in Calm   2.0 mph 98% 0.31 in meteobridge W/m2
17:44 47.8 °F 47.3 °F 30.07 in Calm   4.0 mph 98% 0.23 in meteobridge W/m2
17:49 47.8 °F 47.3 °F 30.07 in Calm   4.0 mph 98% 0.14 in meteobridge W/m2
17:54 47.8 °F 47.3 °F 30.05 in ESE 0.9 mph 2.0 mph 98% 0.13 in meteobridge W/m2
17:59 48.4 °F 47.8 °F 30.04 in Calm   3.0 mph 98% 0.13 in meteobridge W/m2
18:04 48.6 °F 48.0 °F 30.06 in Calm   4.0 mph 98% 0.14 in meteobridge W/m2
18:09 48.7 °F 48.6 °F 30.05 in Calm     99% 0.08 in meteobridge W/m2
18:14 48.7 °F 48.2 °F 30.03 in Calm     98% 0.04 in meteobridge W/m2
18:19 48.6 °F 48.0 °F 30.01 in Calm     98% 0.05 in meteobridge W/m2
18:24 48.7 °F 48.2 °F 30.01 in Calm     98% 0.05 in meteobridge W/m2
18:29 48.9 °F 48.7 °F 30.06 in NW 2.0 mph 4.0 mph 99% 0.04 in meteobridge W/m2
18:34 48.9 °F 48.4 °F 30.10 in Calm   5.0 mph 98% 0.04 in meteobridge W/m2
18:39 48.9 °F 48.4 °F 30.11 in NW 4.0 mph 4.0 mph 98% 0.04 in meteobridge W/m2
18:44 49.1 °F 48.6 °F 30.12 in WNW 2.9 mph 6.0 mph 98% 0.05 in meteobridge W/m2
18:49 49.5 °F 49.3 °F 30.11 in Calm   3.0 mph 99% 0.05 in meteobridge W/m2
18:54 49.8 °F 49.5 °F 30.08 in Calm   1.0 mph 99% 0.06 in meteobridge W/m2
18:59 49.8 °F 49.5 °F 30.06 in Calm     99% 0.06 in meteobridge W/m2
19:04 49.6 °F 49.5 °F 30.10 in Calm     99% 0.06 in meteobridge W/m2
19:09 49.6 °F 49.5 °F 30.09 in Calm     99% 0.05 in meteobridge W/m2
19:14 49.6 °F 49.5 °F 30.08 in Calm     99% 0.05 in meteobridge W/m2
19:19 49.6 °F 49.5 °F 30.08 in Calm     99% 0.05 in meteobridge W/m2
19:24 49.8 °F 49.5 °F 30.09 in Calm   2.0 mph 99% 0.07 in meteobridge W/m2
19:29 49.8 °F 49.5 °F 30.10 in Calm     99% 0.12 in meteobridge W/m2
19:34 49.8 °F 49.5 °F 30.10 in Calm   1.0 mph 99% 0.27 in meteobridge W/m2
19:39 49.6 °F 49.1 °F 30.09 in Calm     98% 0.43 in meteobridge W/m2
19:44 49.5 °F 48.9 °F 30.09 in Calm   1.0 mph 98% 0.56 in meteobridge W/m2
19:49 48.9 °F 48.4 °F 30.11 in Calm   1.0 mph 98% 0.67 in meteobridge W/m2
19:54 48.6 °F 48.0 °F 30.12 in Calm   4.0 mph 98% 0.69 in meteobridge W/m2
19:59 48.4 °F 47.8 °F 30.12 in Calm     98% 0.71 in meteobridge W/m2
20:04 48.4 °F 47.8 °F 30.12 in Calm     98% 0.71 in meteobridge W/m2
20:09 48.2 °F 47.7 °F 30.12 in Calm     98% 0.72 in meteobridge W/m2
20:14 48.2 °F 47.7 °F 30.12 in Calm   1.0 mph 98% 0.72 in meteobridge W/m2
20:19 48.2 °F 47.7 °F 30.12 in SE 0.9 mph 1.0 mph 98% 0.71 in meteobridge W/m2
20:24 48.2 °F 47.7 °F 30.12 in Calm     98% 0.69 in meteobridge W/m2
20:29 48.2 °F 47.7 °F 30.12 in Calm     98% 0.66 in meteobridge W/m2
20:34 48.0 °F 47.5 °F 30.11 in Calm     98% 0.55 in meteobridge W/m2
20:39 48.0 °F 47.8 °F 30.12 in Calm     99% 0.35 in meteobridge W/m2
20:44 48.0 °F 47.8 °F 30.11 in Calm     99% 0.22 in meteobridge W/m2
20:49 48.0 °F 47.8 °F 30.11 in Calm     99% 0.10 in meteobridge W/m2
20:54 48.0 °F 47.8 °F 30.11 in Calm     99% 0.07 in meteobridge W/m2
20:59 48.0 °F 47.8 °F 30.11 in Calm     99% 0.05 in meteobridge W/m2
21:04 48.0 °F 47.8 °F 30.10 in Calm     99% 0.04 in meteobridge W/m2
21:09 48.0 °F 47.8 °F 30.09 in SE 0.9 mph 1.0 mph 99% 0.04 in meteobridge W/m2
21:14 48.0 °F 47.5 °F 30.08 in Calm     98% 0.05 in meteobridge W/m2
21:19 48.0 °F 47.5 °F 30.09 in Calm   2.0 mph 98% 0.05 in meteobridge W/m2
21:24 48.0 °F 47.8 °F 30.11 in Calm     99% 0.05 in meteobridge W/m2
21:29 48.0 °F 47.8 °F 30.11 in Calm     99% 0.05 in meteobridge W/m2
21:34 48.2 °F 48.0 °F 30.12 in Calm     99% 0.06 in meteobridge W/m2
21:39 48.2 °F 48.0 °F 30.13 in Calm     99% 0.07 in meteobridge W/m2
21:44 48.2 °F 48.0 °F 30.12 in Calm     99% 0.08 in meteobridge W/m2
21:49 48.4 °F 48.2 °F 30.11 in Calm     99% 0.09 in meteobridge W/m2
21:54 48.4 °F 48.2 °F 30.11 in Calm     99% 0.09 in meteobridge W/m2
21:59 48.4 °F 48.2 °F 30.11 in Calm   1.0 mph 99% 0.10 in meteobridge W/m2
22:04 48.4 °F 48.2 °F 30.11 in Calm     99% 0.11 in meteobridge W/m2
22:09 48.4 °F 48.2 °F 30.11 in Calm     99% 0.11 in meteobridge W/m2
22:14 48.4 °F 48.2 °F 30.11 in Calm     99% 0.10 in meteobridge W/m2
22:19 48.6 °F 48.4 °F 30.11 in Calm   1.0 mph 99% 0.10 in meteobridge W/m2
22:24 48.7 °F 48.6 °F 30.12 in Calm     99% 0.11 in meteobridge W/m2
22:29 48.6 °F 48.4 °F 30.11 in Calm     99% 0.11 in meteobridge W/m2
22:34 48.7 °F 48.6 °F 30.11 in Calm     99% 0.10 in meteobridge W/m2
22:39 48.7 °F 48.6 °F 30.11 in Calm     99% 0.08 in meteobridge W/m2
22:44 48.7 °F 48.6 °F 30.11 in Calm     99% 0.06 in meteobridge W/m2
22:49 48.7 °F 48.6 °F 30.11 in Calm     99% 0.05 in meteobridge W/m2
22:54 48.9 °F 48.7 °F 30.12 in Calm     99% 0.04 in meteobridge W/m2
22:59 48.9 °F 48.7 °F 30.12 in Calm     99% 0.04 in meteobridge W/m2
23:04 48.9 °F 48.7 °F 30.12 in Calm     99% 0.03 in meteobridge W/m2
23:09 48.9 °F 48.7 °F 30.12 in Calm     99% 0.03 in meteobridge W/m2
23:14 48.9 °F 48.7 °F 30.11 in Calm     99% 0.03 in meteobridge W/m2
23:19 49.1 °F 48.9 °F 30.11 in Calm     99% 0.03 in meteobridge W/m2
23:24 49.1 °F 48.9 °F 30.11 in Calm     99% 0.02 in meteobridge W/m2
23:29 49.3 °F 49.1 °F 30.11 in Calm     99% 0.02 in meteobridge W/m2
23:34 49.3 °F 49.1 °F 30.12 in Calm     99% 0.02 in meteobridge W/m2
23:39 49.3 °F 49.1 °F 30.11 in Calm     99% 0.02 in meteobridge W/m2
23:44 49.3 °F 49.1 °F 30.11 in Calm   1.0 mph 99% 0.03 in meteobridge W/m2
23:49 49.6 °F 49.5 °F 30.10 in Calm     99% 0.03 in meteobridge W/m2
23:54 49.6 °F 49.5 °F 30.11 in Calm     99% 0.03 in meteobridge W/m2
23:59 49.6 °F 49.5 °F 30.11 in Calm     99% 0.03 in meteobridge W/m2
EllijayWeather
Compliments of Weather Underground - 2.5 mb